Time;durP1;ratioP1;P1;durP2;ratioP2;P2;SDS_P1;SDS_P2;PMS_P1;PMS_P2;Temp;Humidity;BMP_temperature;BMP_pressure;BME280_temperature;BME280_humidity;BME280_pressure;Samples;Min_cycle;Max_cycle;Signal;HPM_P1;HPM_P2
2023/09/03 00:00:14;;;;;;;8.68;6.03;;;;;;;;;;4980630;28;20042;-77
2023/09/03 00:02:40;;;;;;;9.20;5.70;;;;;;;;;;4980352;28;20058;-77
2023/09/03 00:05:08;;;;;;;13.27;5.97;;;;;;;;;;4982909;28;20027;-77
2023/09/03 00:07:34;;;;;;;11.63;5.72;;;;;;;;;;4965988;28;20089;-77
2023/09/03 00:09:59;;;;;;;9.00;5.05;;;;;;;;;;4981387;28;20046;-77
2023/09/03 00:12:25;;;;;;;11.73;6.00;;;;;;;;;;4981875;28;20121;-76
2023/09/03 00:14:53;;;;;;;11.20;6.07;;;;;;;;;;4949542;28;20050;-77
2023/09/03 00:17:19;;;;;;;11.73;5.83;;;;;;;;;;4981625;28;20031;-78
2023/09/03 00:19:44;;;;;;;7.13;4.88;;;;;;;;;;4980392;28;20023;-77
2023/09/03 00:22:10;;;;;;;10.40;5.80;;;;;;;;;;4980354;28;20030;-76
2023/09/03 00:24:35;;;;;;;7.45;5.25;;;;;;;;;;4966786;28;20097;-77
2023/09/03 00:27:04;;;;;;;9.98;5.70;;;;;;;;;;4986884;28;20034;-77
2023/09/03 00:29:30;;;;;;;10.95;5.32;;;;;;;;;;4969487;28;20565;-76
2023/09/03 00:31:58;;;;;;;8.57;5.18;;;;;;;;;;4985572;28;20041;-77
2023/09/03 00:34:24;;;;;;;9.18;5.32;;;;;;;;;;4985797;28;20114;-77
2023/09/03 00:36:50;;;;;;;8.90;5.47;;;;;;;;;;4984156;28;20034;-77
2023/09/03 00:39:18;;;;;;;9.32;5.35;;;;;;;;;;4987016;28;20094;-77
2023/09/03 00:41:45;;;;;;;10.60;5.55;;;;;;;;;;4956570;28;20107;-77
2023/09/03 00:44:10;;;;;;;8.43;5.65;;;;;;;;;;4988040;28;20037;-77
2023/09/03 00:46:37;;;;;;;8.82;6.15;;;;;;;;;;4956450;28;20693;-77
2023/09/03 00:49:02;;;;;;;8.77;5.28;;;;;;;;;;4971629;28;20125;-77
2023/09/03 00:51:28;;;;;;;9.82;5.75;;;;;;;;;;4971992;28;20053;-77
2023/09/03 00:53:57;;;;;;;8.82;5.22;;;;;;;;;;4985688;28;20113;-77
2023/09/03 00:56:23;;;;;;;6.78;4.88;;;;;;;;;;4984753;28;20031;-76
2023/09/03 00:58:50;;;;;;;12.02;5.22;;;;;;;;;;4971532;28;20038;-76
2023/09/03 01:01:18;;;;;;;9.32;5.40;;;;;;;;;;4975301;28;20035;-76
2023/09/03 01:03:45;;;;;;;9.10;5.25;;;;;;;;;;4985129;28;20030;-77
2023/09/03 01:06:15;;;;;;;10.02;6.03;;;;;;;;;;4971211;28;20034;-76
2023/09/03 01:08:40;;;;;;;8.35;5.47;;;;;;;;;;4987312;28;20019;-77
2023/09/03 01:11:17;;;;;;;10.18;5.30;;;;;;;;;;4985954;28;20118;-77
2023/09/03 01:13:57;;;;;;;9.63;5.03;;;;;;;;;;4984178;28;20034;-77
2023/09/03 01:16:27;;;;;;;8.77;5.40;;;;;;;;;;4982256;28;20041;-77
2023/09/03 01:18:55;;;;;;;8.43;5.53;;;;;;;;;;4982940;28;20022;-77
2023/09/03 01:21:33;;;;;;;10.35;5.90;;;;;;;;;;4982881;28;20031;-77
2023/09/03 01:24:05;;;;;;;8.65;5.90;;;;;;;;;;4965531;28;20046;-77
2023/09/03 01:26:51;;;;;;;10.88;5.93;;;;;;;;;;4983167;28;20053;-77
2023/09/03 01:29:17;;;;;;;9.32;6.15;;;;;;;;;;4968185;28;20065;-77
2023/09/03 01:31:43;;;;;;;8.38;5.20;;;;;;;;;;4966572;28;20077;-78
2023/09/03 01:34:11;;;;;;;10.90;5.57;;;;;;;;;;4981885;28;20035;-76
2023/09/03 01:36:38;;;;;;;8.30;5.28;;;;;;;;;;4981014;28;20034;-77
2023/09/03 01:39:03;;;;;;;8.45;5.60;;;;;;;;;;4981279;28;20118;-78
2023/09/03 01:41:38;;;;;;;10.57;5.63;;;;;;;;;;4981024;28;20119;-77
2023/09/03 01:44:05;;;;;;;7.13;5.30;;;;;;;;;;4964395;28;20041;-76
2023/09/03 01:46:37;;;;;;;11.82;5.95;;;;;;;;;;4964704;28;20019;-77
2023/09/03 01:49:09;;;;;;;9.75;5.93;;;;;;;;;;4963563;28;20283;-78
2023/09/03 01:51:47;;;;;;;7.10;4.68;;;;;;;;;;4964238;28;20046;-77
2023/09/03 01:54:13;;;;;;;11.35;5.72;;;;;;;;;;4946526;28;20031;-77
2023/09/03 01:57:01;;;;;;;11.82;6.00;;;;;;;;;;4965925;28;20042;-77
2023/09/03 01:59:45;;;;;;;6.75;5.20;;;;;;;;;;4983209;28;20111;-77
2023/09/03 02:02:12;;;;;;;7.47;5.45;;;;;;;;;;4980268;28;20039;-77
2023/09/03 02:04:38;;;;;;;6.95;5.20;;;;;;;;;;4980447;28;20031;-77
2023/09/03 02:07:04;;;;;;;8.38;5.65;;;;;;;;;;4949479;28;20035;-76
2023/09/03 02:09:32;;;;;;;7.88;5.60;;;;;;;;;;4980776;28;20130;-76
2023/09/03 02:11:57;;;;;;;10.48;5.47;;;;;;;;;;4964359;28;20437;-77
2023/09/03 02:14:26;;;;;;;8.77;5.80;;;;;;;;;;4965289;28;20407;-76
2023/09/03 02:16:54;;;;;;;9.02;6.35;;;;;;;;;;4981388;28;20169;-76
2023/09/03 02:19:22;;;;;;;10.13;6.15;;;;;;;;;;4980036;28;20042;-76
2023/09/03 02:21:51;;;;;;;11.00;5.45;;;;;;;;;;4964979;28;20094;-77
2023/09/03 02:24:17;;;;;;;9.05;5.90;;;;;;;;;;4982441;28;20493;-76
2023/09/03 02:26:44;;;;;;;7.82;5.75;;;;;;;;;;4980494;28;20027;-77
2023/09/03 02:29:10;;;;;;;9.20;5.90;;;;;;;;;;4933464;28;20097;-77
2023/09/03 02:31:35;;;;;;;8.95;6.53;;;;;;;;;;4965069;28;20043;-76
2023/09/03 02:34:07;;;;;;;10.18;6.63;;;;;;;;;;4982413;28;20541;-77
2023/09/03 02:36:35;;;;;;;13.88;6.47;;;;;;;;;;4950327;28;20069;-77
2023/09/03 02:39:06;;;;;;;13.82;7.13;;;;;;;;;;4952863;28;20117;-77
2023/09/03 02:41:33;;;;;;;8.50;6.25;;;;;;;;;;4952379;28;20039;-77
2023/09/03 02:44:01;;;;;;;;;;;;;;;;;;4983747;28;20097;-77
2023/09/03 02:46:26;;;;;;;8.35;6.50;;;;;;;;;;4982713;28;19917;-77
2023/09/03 02:48:52;;;;;;;9.77;6.70;;;;;;;;;;4983797;28;20031;-77
2023/09/03 02:51:20;;;;;;;8.98;6.75;;;;;;;;;;4983400;28;20065;-77
2023/09/03 02:53:47;;;;;;;10.35;6.57;;;;;;;;;;4983554;28;20487;-78
2023/09/03 02:56:14;;;;;;;11.18;6.72;;;;;;;;;;4982721;28;20127;-77
2023/09/03 02:58:40;;;;;;;25.10;15.73;;;;;;;;;;4966627;28;20043;-77
2023/09/03 03:01:08;;;;;;;23.15;15.95;;;;;;;;;;4966114;28;20047;-77
2023/09/03 03:03:34;;;;;;;17.17;11.32;;;;;;;;;;4981976;28;20041;-77
2023/09/03 03:05:59;;;;;;;11.90;8.40;;;;;;;;;;4950291;28;20034;-76
2023/09/03 03:08:25;;;;;;;11.63;7.70;;;;;;;;;;4982592;28;20053;-76
2023/09/03 03:10:51;;;;;;;10.90;7.03;;;;;;;;;;4949061;28;20478;-76
2023/09/03 03:13:18;;;;;;;8.63;6.78;;;;;;;;;;4964671;28;20031;-76
2023/09/03 03:15:46;;;;;;;11.73;6.95;;;;;;;;;;4965493;28;20042;-76
2023/09/03 03:18:13;;;;;;;11.00;6.72;;;;;;;;;;4949492;28;20534;-77
2023/09/03 03:20:40;;;;;;;12.85;6.88;;;;;;;;;;4964325;28;20510;-77
2023/09/03 03:23:06;;;;;;;10.52;6.55;;;;;;;;;;4981119;28;20038;-76
2023/09/03 03:25:32;;;;;;;12.55;7.63;;;;;;;;;;4949307;28;20041;-77
2023/09/03 03:27:58;;;;;;;11.25;6.70;;;;;;;;;;4964217;28;20383;-76
2023/09/03 03:30:25;;;;;;;10.77;6.53;;;;;;;;;;4949510;28;20034;-76
2023/09/03 03:32:52;;;;;;;10.57;7.43;;;;;;;;;;4949117;28;20503;-76
2023/09/03 03:35:19;;;;;;;10.77;6.47;;;;;;;;;;4950344;28;20043;-77
2023/09/03 03:37:45;;;;;;;11.30;7.20;;;;;;;;;;4982511;28;20047;-77
2023/09/03 03:40:12;;;;;;;10.07;6.75;;;;;;;;;;4967878;28;20102;-76
2023/09/03 03:42:41;;;;;;;13.20;6.70;;;;;;;;;;4967130;28;20039;-77
2023/09/03 03:45:07;;;;;;;10.20;7.28;;;;;;;;;;4967140;28;20054;-77
2023/09/03 03:47:33;;;;;;;8.98;6.45;;;;;;;;;;4966806;28;20111;-77
2023/09/03 03:49:59;;;;;;;8.77;6.25;;;;;;;;;;4967095;28;20031;-77
2023/09/03 03:52:25;;;;;;;12.75;7.45;;;;;;;;;;4968405;28;20035;-77
2023/09/03 03:54:52;;;;;;;11.90;7.22;;;;;;;;;;4936963;28;20046;-77
2023/09/03 03:57:17;;;;;;;15.25;7.68;;;;;;;;;;4969142;28;20046;-77
2023/09/03 03:59:46;;;;;;;14.07;7.55;;;;;;;;;;4954049;28;20050;-77
2023/09/03 04:02:12;;;;;;;;;;;;;;;;;;4969120;28;20037;-78
2023/09/03 04:04:37;;;;;;;12.80;7.63;;;;;;;;;;4968786;28;19993;-77
2023/09/03 04:07:03;;;;;;;14.75;8.95;;;;;;;;;;4965952;28;20048;-77
2023/09/03 04:09:29;;;;;;;12.70;8.02;;;;;;;;;;4965160;28;20027;-76
2023/09/03 04:11:55;;;;;;;12.05;8.18;;;;;;;;;;4981215;28;20375;-76
2023/09/03 04:14:21;;;;;;;12.05;8.38;;;;;;;;;;4965962;28;20031;-77
2023/09/03 04:16:49;;;;;;;11.27;8.27;;;;;;;;;;4953323;28;20085;-78
2023/09/03 04:19:15;;;;;;;12.45;8.68;;;;;;;;;;4983881;28;20039;-77
2023/09/03 04:21:41;;;;;;;10.90;8.35;;;;;;;;;;4967040;28;20101;-77
2023/09/03 04:24:08;;;;;;;12.75;8.25;;;;;;;;;;4982041;28;20023;-76
2023/09/03 04:26:36;;;;;;;13.57;9.02;;;;;;;;;;4947995;28;20424;-77
2023/09/03 04:29:05;;;;;;;12.05;9.05;;;;;;;;;;4948929;28;20055;-78
2023/09/03 04:31:35;;;;;;;12.52;8.75;;;;;;;;;;4951013;28;20379;-77
2023/09/03 04:34:02;;;;;;;12.93;8.63;;;;;;;;;;4967621;28;20047;-77
2023/09/03 04:36:29;;;;;;;15.52;11.00;;;;;;;;;;4967768;28;20035;-77
2023/09/03 04:38:54;;;;;;;15.55;9.63;;;;;;;;;;4966342;28;20110;-77
2023/09/03 04:41:20;;;;;;;15.63;9.63;;;;;;;;;;4964714;28;20046;-78
2023/09/03 04:44:09;;;;;;;12.32;9.93;;;;;;;;;;4982017;28;20043;-77
2023/09/03 04:46:39;;;;;;;15.80;8.73;;;;;;;;;;4981533;28;20027;-77
2023/09/03 04:49:07;;;;;;;11.00;8.20;;;;;;;;;;4981730;28;20047;-77
2023/09/03 04:51:37;;;;;;;11.73;8.48;;;;;;;;;;4965200;28;20043;-77
2023/09/03 04:54:04;;;;;;;17.13;8.40;;;;;;;;;;4935444;28;20093;-77
2023/09/03 04:56:30;;;;;;;15.15;8.60;;;;;;;;;;4981751;28;20038;-77
2023/09/03 04:58:55;;;;;;;12.30;8.25;;;;;;;;;;4965932;28;20072;-77
2023/09/03 05:01:22;;;;;;;13.57;8.30;;;;;;;;;;4966901;28;20034;-77
2023/09/03 05:03:53;;;;;;;12.52;7.68;;;;;;;;;;4966654;28;20041;-78
2023/09/03 05:06:20;;;;;;;9.95;7.40;;;;;;;;;;4983921;28;20043;-76
2023/09/03 05:08:49;;;;;;;12.48;8.25;;;;;;;;;;4983853;28;20149;-78
2023/09/03 05:11:16;;;;;;;11.40;7.57;;;;;;;;;;4967968;28;20078;-77
2023/09/03 05:13:43;;;;;;;11.95;8.10;;;;;;;;;;4953127;28;20084;-76
2023/09/03 05:16:09;;;;;;;10.98;7.18;;;;;;;;;;4967960;28;20051;-77
2023/09/03 05:18:34;;;;;;;10.88;7.63;;;;;;;;;;4966408;28;20561;-78
2023/09/03 05:21:10;;;;;;;11.73;8.05;;;;;;;;;;4950774;28;20034;-78
2023/09/03 05:23:36;;;;;;;9.93;7.13;;;;;;;;;;4965902;28;20045;-77
2023/09/03 05:26:02;;;;;;;15.35;7.43;;;;;;;;;;4966541;28;20101;-78
2023/09/03 05:28:29;;;;;;;13.07;7.82;;;;;;;;;;4967748;28;20467;-77
2023/09/03 05:30:55;;;;;;;11.95;7.20;;;;;;;;;;4967375;28;20582;-79
2023/09/03 05:33:20;;;;;;;11.70;6.80;;;;;;;;;;4967877;28;20035;-77
2023/09/03 05:35:46;;;;;;;9.88;7.07;;;;;;;;;;4953733;28;20042;-77
2023/09/03 05:38:13;;;;;;;13.15;8.02;;;;;;;;;;4968634;28;20066;-77
2023/09/03 05:40:40;;;;;;;11.88;7.75;;;;;;;;;;4968826;28;20161;-77
2023/09/03 05:43:10;;;;;;;9.30;6.70;;;;;;;;;;4954171;28;20142;-77
2023/09/03 05:45:48;;;;;;;10.18;6.63;;;;;;;;;;4954963;28;20047;-77
2023/09/03 05:48:14;;;;;;;10.38;7.00;;;;;;;;;;4969703;28;20070;-78
2023/09/03 05:50:39;;;;;;;10.85;6.40;;;;;;;;;;4970803;28;20027;-76
2023/09/03 05:53:05;;;;;;;11.45;6.85;;;;;;;;;;4987985;28;20031;-78
2023/09/03 05:55:37;;;;;;;12.15;5.97;;;;;;;;;;4971841;28;20186;-77
2023/09/03 05:58:03;;;;;;;9.00;5.82;;;;;;;;;;4953686;28;20038;-77
2023/09/03 06:00:29;;;;;;;8.43;5.70;;;;;;;;;;4952775;28;20482;-77
2023/09/03 06:02:57;;;;;;;9.40;4.82;;;;;;;;;;4969146;28;20059;-77
2023/09/03 06:05:27;;;;;;;9.13;5.80;;;;;;;;;;4952078;28;20042;-76
2023/09/03 06:07:52;;;;;;;10.88;5.40;;;;;;;;;;4967019;28;20039;-76
2023/09/03 06:10:18;;;;;;;6.72;5.28;;;;;;;;;;4959206;28;20077;-76
2023/09/03 06:12:43;;;;;;;7.47;5.25;;;;;;;;;;4944989;28;20162;-77
2023/09/03 06:15:09;;;;;;;9.30;5.80;;;;;;;;;;4978871;28;20169;-76
2023/09/03 06:17:35;;;;;;;7.28;4.97;;;;;;;;;;4979630;28;20050;-76
2023/09/03 06:20:00;;;;;;;7.20;4.93;;;;;;;;;;4978201;28;20033;-76
2023/09/03 06:22:26;;;;;;;8.82;5.20;;;;;;;;;;4977431;28;20097;-77
2023/09/03 06:24:51;;;;;;;7.78;5.28;;;;;;;;;;4977274;28;20046;-76
2023/09/03 06:27:16;;;;;;;7.80;4.88;;;;;;;;;;4977073;28;20595;-76
2023/09/03 06:29:42;;;;;;;8.00;5.13;;;;;;;;;;4977056;28;20081;-76
2023/09/03 06:32:07;;;;;;;10.27;5.50;;;;;;;;;;4962012;28;20478;-76
2023/09/03 06:34:33;;;;;;;8.52;4.72;;;;;;;;;;4960967;28;20533;-76
2023/09/03 06:36:59;;;;;;;8.25;4.75;;;;;;;;;;4978770;28;20038;-77
2023/09/03 06:39:26;;;;;;;7.22;4.90;;;;;;;;;;4977030;28;20035;-77
2023/09/03 06:41:52;;;;;;;8.40;4.95;;;;;;;;;;4977150;28;20034;-77
2023/09/03 06:44:17;;;;;;;9.25;5.53;;;;;;;;;;4976705;28;20022;-77
2023/09/03 06:46:43;;;;;;;7.00;4.35;;;;;;;;;;4960328;28;20157;-77
2023/09/03 06:49:08;;;;;;;7.63;4.80;;;;;;;;;;4978843;28;20050;-76
2023/09/03 06:51:34;;;;;;;8.02;4.53;;;;;;;;;;4944686;28;20117;-77
2023/09/03 06:54:00;;;;;;;7.63;4.80;;;;;;;;;;4976735;28;20138;-77
2023/09/03 06:56:26;;;;;;;5.75;4.18;;;;;;;;;;4961396;28;20479;-76
2023/09/03 06:58:51;;;;;;;7.30;4.55;;;;;;;;;;4979337;28;20038;-76
2023/09/03 07:01:18;;;;;;;6.38;4.25;;;;;;;;;;4964982;28;20038;-76
2023/09/03 07:03:43;;;;;;;8.85;5.35;;;;;;;;;;4975814;28;20038;-76
2023/09/03 07:06:09;;;;;;;6.60;3.90;;;;;;;;;;4976115;28;20037;-76
2023/09/03 07:08:36;;;;;;;6.55;4.03;;;;;;;;;;4977303;28;20050;-77
2023/09/03 07:11:02;;;;;;;8.52;4.63;;;;;;;;;;4975876;28;20026;-76
2023/09/03 07:13:27;;;;;;;6.88;4.32;;;;;;;;;;4975571;28;20549;-76
2023/09/03 07:15:53;;;;;;;6.53;4.15;;;;;;;;;;4975815;28;20069;-76
2023/09/03 07:18:18;;;;;;;6.45;4.35;;;;;;;;;;4943641;28;20035;-76
2023/09/03 07:20:44;;;;;;;9.00;4.07;;;;;;;;;;4975858;28;20030;-76
2023/09/03 07:23:09;;;;;;;6.25;4.40;;;;;;;;;;4976634;28;20478;-77
2023/09/03 07:25:35;;;;;;;6.72;4.30;;;;;;;;;;4975805;28;20023;-78
2023/09/03 07:28:01;;;;;;;9.15;4.28;;;;;;;;;;4975682;28;20023;-76
2023/09/03 07:30:28;;;;;;;8.05;4.25;;;;;;;;;;4961388;28;20061;-76
2023/09/03 07:32:53;;;;;;;7.28;4.05;;;;;;;;;;4978205;28;20490;-76
2023/09/03 07:35:19;;;;;;;7.85;3.92;;;;;;;;;;4961985;28;20037;-76
2023/09/03 07:37:44;;;;;;;6.72;4.30;;;;;;;;;;4977936;28;20031;-77
2023/09/03 07:40:10;;;;;;;9.40;4.47;;;;;;;;;;4976194;28;20454;-77
2023/09/03 07:42:36;;;;;;;6.68;3.88;;;;;;;;;;4959951;28;20458;-76
2023/09/03 07:45:02;;;;;;;7.45;4.05;;;;;;;;;;4975777;28;20031;-77
2023/09/03 07:47:27;;;;;;;9.40;4.57;;;;;;;;;;4975277;28;20026;-77
2023/09/03 07:49:53;;;;;;;5.65;3.30;;;;;;;;;;4975289;28;20506;-77
2023/09/03 07:52:18;;;;;;;6.50;4.13;;;;;;;;;;4975511;28;20125;-77
2023/09/03 07:54:44;;;;;;;6.18;3.58;;;;;;;;;;4975378;28;20043;-77
2023/09/03 07:57:10;;;;;;;7.40;3.90;;;;;;;;;;4976441;28;20026;-76
2023/09/03 07:59:36;;;;;;;8.02;3.72;;;;;;;;;;4975105;28;20038;-76
2023/09/03 08:02:02;;;;;;;8.80;4.00;;;;;;;;;;4959758;28;20026;-76
2023/09/03 08:04:28;;;;;;;7.55;3.83;;;;;;;;;;4975733;28;20031;-76
2023/09/03 08:06:54;;;;;;;6.20;3.50;;;;;;;;;;4960107;28;20065;-77
2023/09/03 08:09:23;;;;;;;6.38;3.70;;;;;;;;;;4944107;28;20055;-77
2023/09/03 08:11:49;;;;;;;8.05;4.10;;;;;;;;;;4975710;28;20114;-77
2023/09/03 08:14:15;;;;;;;5.97;3.38;;;;;;;;;;4975563;28;20057;-77
2023/09/03 08:16:40;;;;;;;7.60;4.30;;;;;;;;;;4960171;28;20042;-78
2023/09/03 08:19:06;;;;;;;7.93;3.53;;;;;;;;;;4959576;28;20134;-77
2023/09/03 08:21:31;;;;;;;7.82;3.33;;;;;;;;;;4943239;28;20038;-77
2023/09/03 08:23:59;;;;;;;7.15;3.50;;;;;;;;;;4959208;28;20700;-77
2023/09/03 08:26:24;;;;;;;8.07;4.10;;;;;;;;;;4978546;28;20126;-75
2023/09/03 08:28:50;;;;;;;6.38;3.42;;;;;;;;;;4959190;28;20292;-76
2023/09/03 08:31:16;;;;;;;6.78;2.92;;;;;;;;;;4961520;28;20217;-77
2023/09/03 08:33:41;;;;;;;8.35;3.30;;;;;;;;;;4979569;28;20085;-77
2023/09/03 08:36:07;;;;;;;5.93;2.85;;;;;;;;;;4977572;28;20070;-77
2023/09/03 08:38:33;;;;;;;10.05;3.50;;;;;;;;;;4979117;28;20109;-78
2023/09/03 08:40:58;;;;;;;6.85;3.63;;;;;;;;;;4950829;28;20545;-77
2023/09/03 08:43:25;;;;;;;6.95;2.72;;;;;;;;;;4967569;28;20033;-77
2023/09/03 08:45:55;;;;;;;8.93;2.72;;;;;;;;;;4980403;28;20027;-78
2023/09/03 08:48:20;;;;;;;6.43;2.72;;;;;;;;;;4978965;28;20040;-76
2023/09/03 08:50:46;;;;;;;7.38;3.05;;;;;;;;;;4983399;28;20027;-77
2023/09/03 08:53:11;;;;;;;6.32;2.88;;;;;;;;;;4984071;28;20105;-77
2023/09/03 08:55:39;;;;;;;5.47;3.30;;;;;;;;;;4985691;28;20035;-77
2023/09/03 08:58:05;;;;;;;6.35;2.53;;;;;;;;;;4969262;28;20038;-77
2023/09/03 09:00:31;;;;;;;6.28;2.60;;;;;;;;;;4966920;28;20046;-77
2023/09/03 09:02:59;;;;;;;4.15;2.22;;;;;;;;;;4951404;28;20274;-77
2023/09/03 09:05:25;;;;;;;6.13;1.92;;;;;;;;;;4965152;28;20085;-77
2023/09/03 09:07:51;;;;;;;9.57;2.42;;;;;;;;;;4947053;28;20039;-77
2023/09/03 09:10:17;;;;;;;5.00;2.17;;;;;;;;;;4959415;28;20027;-78
2023/09/03 09:12:51;;;;;;;6.43;1.90;;;;;;;;;;4958936;28;20042;-78
2023/09/03 09:15:17;;;;;;;8.23;2.60;;;;;;;;;;4974684;28;20089;-77
2023/09/03 09:17:45;;;;;;;5.38;1.95;;;;;;;;;;4958931;28;20039;-77
2023/09/03 09:20:14;;;;;;;3.45;1.65;;;;;;;;;;4958179;28;20043;-76
2023/09/03 09:22:40;;;;;;;5.07;2.00;;;;;;;;;;4941411;28;20138;-77
2023/09/03 09:25:06;;;;;;;6.55;2.30;;;;;;;;;;4973597;28;20390;-77
2023/09/03 09:27:36;;;;;;;5.45;2.13;;;;;;;;;;4957914;28;20031;-77
2023/09/03 09:30:12;;;;;;;5.40;1.92;;;;;;;;;;4973599;28;20046;-77
2023/09/03 09:32:40;;;;;;;5.53;1.85;;;;;;;;;;4958184;28;20065;-77
2023/09/03 09:35:06;;;;;;;4.90;2.05;;;;;;;;;;4973927;28;20041;-77
2023/09/03 09:37:36;;;;;;;6.78;2.10;;;;;;;;;;4942099;28;20397;-77
2023/09/03 09:40:01;;;;;;;5.40;1.92;;;;;;;;;;4974602;28;20037;-77
2023/09/03 09:42:27;;;;;;;3.35;1.65;;;;;;;;;;4973267;28;20477;-77
2023/09/03 09:44:53;;;;;;;5.07;1.90;;;;;;;;;;4973478;28;20387;-77
2023/09/03 09:47:19;;;;;;;4.00;2.20;;;;;;;;;;4942200;28;20479;-77
2023/09/03 09:49:47;;;;;;;5.32;1.83;;;;;;;;;;4944807;28;20058;-77
2023/09/03 09:52:17;;;;;;;6.05;2.13;;;;;;;;;;4961034;28;20035;-77
2023/09/03 09:54:43;;;;;;;4.72;1.88;;;;;;;;;;4960945;28;20033;-77
2023/09/03 09:57:14;;;;;;;6.07;1.90;;;;;;;;;;4977238;28;20106;-77
2023/09/03 09:59:44;;;;;;;4.85;1.67;;;;;;;;;;4976647;28;20090;-77
2023/09/03 10:02:13;;;;;;;4.32;1.67;;;;;;;;;;4976781;28;20118;-77
2023/09/03 10:04:41;;;;;;;3.90;1.65;;;;;;;;;;4945181;28;20030;-77
2023/09/03 10:07:08;;;;;;;3.45;1.27;;;;;;;;;;4978729;28;20398;-77
2023/09/03 10:09:35;;;;;;;6.32;1.55;;;;;;;;;;4944736;28;20497;-77
2023/09/03 10:12:01;;;;;;;8.65;2.28;;;;;;;;;;4960692;28;20038;-77
2023/09/03 10:14:27;;;;;;;5.57;2.08;;;;;;;;;;4944568;28;20030;-77
2023/09/03 10:16:55;;;;;;;5.03;1.58;;;;;;;;;;4977929;28;20174;-76
2023/09/03 10:19:22;;;;;;;4.70;2.08;;;;;;;;;;4978171;28;20501;-76
2023/09/03 10:21:49;;;;;;;4.15;1.70;;;;;;;;;;4961332;28;20101;-77
2023/09/03 10:24:17;;;;;;;4.88;1.90;;;;;;;;;;4961230;28;20030;-79
2023/09/03 10:26:48;;;;;;;4.45;1.45;;;;;;;;;;4945616;28;20057;-78
2023/09/03 10:29:17;;;;;;;4.88;1.50;;;;;;;;;;4977006;28;20085;-78
2023/09/03 10:31:43;;;;;;;7.97;1.92;;;;;;;;;;4978875;28;20118;-77
2023/09/03 10:34:13;;;;;;;5.40;1.50;;;;;;;;;;4961946;28;20125;-77
2023/09/03 10:36:58;;;;;;;3.67;1.60;;;;;;;;;;4962034;28;20030;-77
2023/09/03 10:39:24;;;;;;;5.85;1.88;;;;;;;;;;4946769;28;20043;-77
2023/09/03 10:42:10;;;;;;;5.97;1.90;;;;;;;;;;4961635;28;20089;-77
2023/09/03 10:44:40;;;;;;;7.15;1.90;;;;;;;;;;4946092;28;20031;-77
2023/09/03 10:47:05;;;;;;;3.80;1.45;;;;;;;;;;4978096;28;20058;-77
2023/09/03 10:49:40;;;;;;;6.25;1.55;;;;;;;;;;4961051;28;20047;-77
2023/09/03 10:52:24;;;;;;;4.40;1.50;;;;;;;;;;4976578;28;20106;-77
2023/09/03 10:55:09;;;;;;;3.97;1.50;;;;;;;;;;4960939;28;20038;-78
2023/09/03 10:57:34;;;;;;;10.60;2.58;;;;;;;;;;4943756;28;20218;-77
2023/09/03 11:00:06;;;;;;;2.40;1.27;;;;;;;;;;4959936;28;20127;-78
2023/09/03 11:02:36;;;;;;;3.70;1.40;;;;;;;;;;4976470;28;20034;-77
2023/09/03 11:05:11;;;;;;;4.32;1.58;;;;;;;;;;4960162;28;20035;-76
2023/09/03 11:07:41;;;;;;;7.80;1.30;;;;;;;;;;4943892;28;20042;-77
2023/09/03 11:10:27;;;;;;;10.30;1.85;;;;;;;;;;4975617;28;20026;-78
2023/09/03 11:12:52;;;;;;;5.30;1.38;;;;;;;;;;4960315;28;20035;-77
2023/09/03 11:15:18;;;;;;;7.28;1.73;;;;;;;;;;4959844;28;20063;-78
2023/09/03 11:17:51;;;;;;;4.07;1.50;;;;;;;;;;4977303;28;20065;-78
2023/09/03 11:20:30;;;;;;;2.83;1.38;;;;;;;;;;4976511;28;20034;-78
2023/09/03 11:22:58;;;;;;;4.68;1.13;;;;;;;;;;4959356;28;20089;-78
2023/09/03 11:25:31;;;;;;;3.67;1.40;;;;;;;;;;4944373;28;20488;-79
2023/09/03 11:27:56;;;;;;;3.85;1.42;;;;;;;;;;4975823;28;20487;-77
2023/09/03 11:30:22;;;;;;;3.85;1.30;;;;;;;;;;4976142;28;20054;-78
2023/09/03 11:32:47;;;;;;;3.80;1.35;;;;;;;;;;4959651;28;20120;-77
2023/09/03 11:35:13;;;;;;;4.50;1.10;;;;;;;;;;4959299;28;20089;-78
2023/09/03 11:37:38;;;;;;;4.93;1.13;;;;;;;;;;4975716;28;20022;-78
2023/09/03 11:40:04;;;;;;;3.03;1.20;;;;;;;;;;4975760;28;20046;-78
2023/09/03 11:42:30;;;;;;;3.60;1.20;;;;;;;;;;4975694;28;20073;-79
2023/09/03 11:44:55;;;;;;;4.00;1.30;;;;;;;;;;4959413;28;20045;-78
2023/09/03 11:47:21;;;;;;;4.53;1.30;;;;;;;;;;4961230;28;20054;-79
2023/09/03 11:49:47;;;;;;;7.85;1.55;;;;;;;;;;4979446;28;20062;-79
2023/09/03 11:52:14;;;;;;;5.47;1.50;;;;;;;;;;4978489;28;20034;-79
2023/09/03 11:54:40;;;;;;;2.60;1.00;;;;;;;;;;4980568;28;20105;-79
2023/09/03 11:57:07;;;;;;;2.58;1.05;;;;;;;;;;4980539;28;20031;-79
2023/09/03 11:59:32;;;;;;;4.03;1.50;;;;;;;;;;4974917;28;20102;-79
2023/09/03 12:01:58;;;;;;;5.20;1.20;;;;;;;;;;4965155;28;20125;-79
2023/09/03 12:04:24;;;;;;;4.63;1.38;;;;;;;;;;4949897;28;20031;-80
2023/09/03 12:06:50;;;;;;;4.13;1.23;;;;;;;;;;4945034;29;20126;-78
2023/09/03 12:09:20;;;;;;;3.35;1.27;;;;;;;;;;4978137;28;20031;-80
2023/09/03 12:11:46;;;;;;;4.60;1.70;;;;;;;;;;4948386;28;20030;-80
2023/09/03 12:14:12;;;;;;;3.53;1.20;;;;;;;;;;4966971;28;20029;-78
2023/09/03 12:16:47;;;;;;;4.97;1.48;;;;;;;;;;4964396;29;20019;-79
2023/09/03 12:19:13;;;;;;;3.85;1.20;;;;;;;;;;4976137;28;20070;-79
2023/09/03 12:21:38;;;;;;;3.95;1.20;;;;;;;;;;4984508;28;20043;-79
2023/09/03 12:24:07;;;;;;;4.20;1.40;;;;;;;;;;4984438;28;20030;-78
2023/09/03 12:26:35;;;;;;;3.55;1.17;;;;;;;;;;4985959;28;20031;-79
2023/09/03 12:29:03;;;;;;;4.55;1.40;;;;;;;;;;4967531;28;20062;-79
2023/09/03 12:31:41;;;;;;;6.75;1.30;;;;;;;;;;4992693;28;20023;-79
2023/09/03 12:34:08;;;;;;;3.20;1.20;;;;;;;;;;4984883;28;20035;-79
2023/09/03 12:36:33;;;;;;;5.00;1.30;;;;;;;;;;4984990;28;20062;-79
2023/09/03 12:39:00;;;;;;;4.22;1.42;;;;;;;;;;4969091;28;20027;-79
2023/09/03 12:41:30;;;;;;;4.47;1.50;;;;;;;;;;4953763;28;20058;-79
2023/09/03 12:43:55;;;;;;;5.30;1.73;;;;;;;;;;4966021;28;20066;-79
2023/09/03 12:46:22;;;;;;;3.58;1.23;;;;;;;;;;4987240;28;20046;-79
2023/09/03 12:48:47;;;;;;;2.20;1.17;;;;;;;;;;4984256;28;20031;-79
2023/09/03 12:51:15;;;;;;;6.47;1.45;;;;;;;;;;4975028;28;20050;-79
2023/09/03 12:53:42;;;;;;;4.40;1.48;;;;;;;;;;4978874;28;20034;-79
2023/09/03 12:56:07;;;;;;;4.75;1.50;;;;;;;;;;4976834;28;20067;-79
2023/09/03 12:58:33;;;;;;;1.80;1.00;;;;;;;;;;4944771;28;20027;-80
2023/09/03 13:00:59;;;;;;;5.47;1.65;;;;;;;;;;4951552;28;20050;-79
2023/09/03 13:03:25;;;;;;;2.97;1.40;;;;;;;;;;4957036;28;20031;-78
2023/09/03 13:05:51;;;;;;;3.30;1.20;;;;;;;;;;4957067;28;20027;-78
2023/09/03 13:08:16;;;;;;;4.95;1.60;;;;;;;;;;4971014;28;20070;-79
2023/09/03 13:10:42;;;;;;;5.05;1.33;;;;;;;;;;4975885;28;20023;-77
2023/09/03 13:13:09;;;;;;;2.53;1.05;;;;;;;;;;4973538;28;20278;-78
2023/09/03 13:15:34;;;;;;;3.63;1.10;;;;;;;;;;4974148;28;20061;-78
2023/09/03 13:18:00;;;;;;;5.97;3.40;;;;;;;;;;4981618;28;20491;-78
2023/09/03 13:20:25;;;;;;;70.03;46.03;;;;;;;;;;4973756;28;20356;-78
2023/09/03 13:22:51;;;;;;;34.53;21.45;;;;;;;;;;4973792;28;20450;-78
2023/09/03 13:25:16;;;;;;;40.00;23.77;;;;;;;;;;4972763;28;20031;-77
2023/09/03 13:27:42;;;;;;;35.65;25.13;;;;;;;;;;4940790;28;20030;-78
2023/09/03 13:30:08;;;;;;;21.20;10.43;;;;;;;;;;4969096;28;20019;-78
2023/09/03 13:32:33;;;;;;;14.40;6.85;;;;;;;;;;4953539;29;20027;-78
2023/09/03 13:34:59;;;;;;;8.00;3.95;;;;;;;;;;4937813;29;20053;-77
2023/09/03 13:37:24;;;;;;;9.07;5.53;;;;;;;;;;4953805;29;20401;-77
2023/09/03 13:39:50;;;;;;;7.25;2.65;;;;;;;;;;4937281;29;20023;-77
2023/09/03 13:42:15;;;;;;;7.20;4.35;;;;;;;;;;4953891;29;20086;-78
2023/09/03 13:44:41;;;;;;;5.60;2.17;;;;;;;;;;4954164;29;20086;-77
2023/09/03 13:47:06;;;;;;;6.55;3.72;;;;;;;;;;4953560;29;20027;-77
2023/09/03 13:49:32;;;;;;;5.85;2.85;;;;;;;;;;4969267;28;20082;-77
2023/09/03 13:51:57;;;;;;;7.72;2.80;;;;;;;;;;4972464;28;20085;-77
2023/09/03 13:54:23;;;;;;;58.75;38.00;;;;;;;;;;4975515;28;20035;-79
2023/09/03 13:56:49;;;;;;;13.70;9.88;;;;;;;;;;4947097;28;20037;-77
2023/09/03 13:59:14;;;;;;;5.53;2.20;;;;;;;;;;4943281;28;20042;-78
2023/09/03 14:01:40;;;;;;;3.85;1.40;;;;;;;;;;4974376;28;20093;-77
2023/09/03 14:04:06;;;;;;;4.75;1.80;;;;;;;;;;4941346;28;20026;-78
2023/09/03 14:06:31;;;;;;;4.60;1.40;;;;;;;;;;4977122;28;20383;-77
2023/09/03 14:08:57;;;;;;;4.93;2.65;;;;;;;;;;4957934;28;20035;-77
2023/09/03 14:11:23;;;;;;;3.38;1.52;;;;;;;;;;4957327;28;20031;-77
2023/09/03 14:13:48;;;;;;;3.85;1.40;;;;;;;;;;4974779;28;20027;-77
2023/09/03 14:16:17;;;;;;;4.53;1.50;;;;;;;;;;4974914;28;20038;-78
2023/09/03 14:18:43;;;;;;;3.95;1.73;;;;;;;;;;4941441;28;20030;-78
2023/09/03 14:21:08;;;;;;;4.88;1.52;;;;;;;;;;4957823;28;20031;-78
2023/09/03 14:23:34;;;;;;;3.55;1.30;;;;;;;;;;4956968;28;20121;-78
2023/09/03 14:26:00;;;;;;;5.53;1.88;;;;;;;;;;4974662;28;20042;-78
2023/09/03 14:28:25;;;;;;;5.35;1.70;;;;;;;;;;4960184;28;20019;-78
2023/09/03 14:30:51;;;;;;;4.78;2.40;;;;;;;;;;4978032;28;20054;-78
2023/09/03 14:33:17;;;;;;;4.43;1.33;;;;;;;;;;4980956;28;20034;-78
2023/09/03 14:35:42;;;;;;;5.35;1.33;;;;;;;;;;4980560;28;20038;-78
2023/09/03 14:38:08;;;;;;;6.65;2.53;;;;;;;;;;4978741;28;20030;-78